sensor_id;sensor_type;location;lat;lon;timestamp;P1;durP1;ratioP1;P2;durP2;ratioP2
61675;SDS011;47574;52.090;5.244;2022-07-11T00:00:53;8.2;;;2.4;;
61675;SDS011;47574;52.090;5.244;2022-07-11T00:02:40;8.31;;;2.5;;
61675;SDS011;47574;52.090;5.244;2022-07-11T00:04:27;8.9;;;2.31;;
61675;SDS011;47574;52.090;5.244;2022-07-11T00:06:14;5.7;;;2.21;;
61675;SDS011;47574;52.090;5.244;2022-07-11T00:08:00;8.9;;;2.31;;
61675;SDS011;47574;52.090;5.244;2022-07-11T00:11:33;6.0;;;2.0;;
61675;SDS011;47574;52.090;5.244;2022-07-11T00:13:20;5.4;;;2.5;;
61675;SDS011;47574;52.090;5.244;2022-07-11T00:15:07;6.7;;;2.31;;
61675;SDS011;47574;52.090;5.244;2022-07-11T00:16:54;7.2;;;2.6;;
61675;SDS011;47574;52.090;5.244;2022-07-11T00:18:41;5.7;;;2.0;;
61675;SDS011;47574;52.090;5.244;2022-07-11T00:22:15;9.1;;;2.31;;
61675;SDS011;47574;52.090;5.244;2022-07-11T00:24:03;7.8;;;2.5;;
61675;SDS011;47574;52.090;5.244;2022-07-11T00:25:51;5.3;;;1.9;;
61675;SDS011;47574;52.090;5.244;2022-07-11T00:27:37;6.9;;;2.1;;
61675;SDS011;47574;52.090;5.244;2022-07-11T00:29:23;6.9;;;2.1;;
61675;SDS011;47574;52.090;5.244;2022-07-11T00:31:10;5.6;;;2.0;;
61675;SDS011;47574;52.090;5.244;2022-07-11T00:34:42;5.0;;;1.9;;
61675;SDS011;47574;52.090;5.244;2022-07-11T00:36:29;8.71;;;2.1;;
61675;SDS011;47574;52.090;5.244;2022-07-11T00:38:15;7.1;;;2.21;;
61675;SDS011;47574;52.090;5.244;2022-07-11T00:40:01;5.3;;;1.9;;
61675;SDS011;47574;52.090;5.244;2022-07-11T00:41:48;5.7;;;1.7;;
61675;SDS011;47574;52.090;5.244;2022-07-11T00:43:36;4.91;;;1.6;;
61675;SDS011;47574;52.090;5.244;2022-07-11T00:47:10;5.6;;;1.7;;
61675;SDS011;47574;52.090;5.244;2022-07-11T00:48:57;6.7;;;2.31;;
61675;SDS011;47574;52.090;5.244;2022-07-11T00:50:45;5.7;;;1.8;;
61675;SDS011;47574;52.090;5.244;2022-07-11T00:52:32;6.1;;;1.7;;
61675;SDS011;47574;52.090;5.244;2022-07-11T00:54:20;6.1;;;1.8;;
61675;SDS011;47574;52.090;5.244;2022-07-11T00:56:08;4.7;;;1.5;;
61675;SDS011;47574;52.090;5.244;2022-07-11T00:59:42;5.2;;;1.5;;
61675;SDS011;47574;52.090;5.244;2022-07-11T01:01:30;5.9;;;1.8;;
61675;SDS011;47574;52.090;5.244;2022-07-11T01:03:19;5.2;;;1.6;;
61675;SDS011;47574;52.090;5.244;2022-07-11T01:05:05;3.0;;;1.5;;
61675;SDS011;47574;52.090;5.244;2022-07-11T01:06:53;7.0;;;1.8;;
61675;SDS011;47574;52.090;5.244;2022-07-11T01:08:39;6.6;;;1.8;;
61675;SDS011;47574;52.090;5.244;2022-07-11T01:12:13;2.7;;;1.5;;
61675;SDS011;47574;52.090;5.244;2022-07-11T01:14:00;7.9;;;1.9;;
61675;SDS011;47574;52.090;5.244;2022-07-11T01:15:46;3.9;;;1.3;;
61675;SDS011;47574;52.090;5.244;2022-07-11T01:17:32;5.11;;;1.7;;
61675;SDS011;47574;52.090;5.244;2022-07-11T01:19:18;4.3;;;1.4;;
61675;SDS011;47574;52.090;5.244;2022-07-11T01:23:03;4.2;;;1.4;;
61675;SDS011;47574;52.090;5.244;2022-07-11T01:24:51;4.91;;;1.8;;
61675;SDS011;47574;52.090;5.244;2022-07-11T01:26:39;5.11;;;1.5;;
61675;SDS011;47574;52.090;5.244;2022-07-11T01:28:25;4.3;;;1.5;;
61675;SDS011;47574;52.090;5.244;2022-07-11T01:30:11;6.5;;;1.5;;
61675;SDS011;47574;52.090;5.244;2022-07-11T01:31:57;3.3;;;1.3;;
61675;SDS011;47574;52.090;5.244;2022-07-11T01:33:43;5.8;;;1.8;;
61675;SDS011;47574;52.090;5.244;2022-07-11T01:37:17;4.61;;;1.7;;
61675;SDS011;47574;52.090;5.244;2022-07-11T01:39:05;3.4;;;1.4;;
61675;SDS011;47574;52.090;5.244;2022-07-11T01:40:52;5.9;;;1.7;;
61675;SDS011;47574;52.090;5.244;2022-07-11T01:42:38;3.6;;;1.2;;
61675;SDS011;47574;52.090;5.244;2022-07-11T01:44:24;4.8;;;1.6;;
61675;SDS011;47574;52.090;5.244;2022-07-11T01:47:57;5.3;;;1.4;;
61675;SDS011;47574;52.090;5.244;2022-07-11T01:49:43;4.91;;;1.7;;
61675;SDS011;47574;52.090;5.244;2022-07-11T01:51:30;5.9;;;1.4;;
61675;SDS011;47574;52.090;5.244;2022-07-11T01:53:16;5.2;;;1.3;;
61675;SDS011;47574;52.090;5.244;2022-07-11T01:55:03;3.1;;;1.2;;
61675;SDS011;47574;52.090;5.244;2022-07-11T01:56:50;3.3;;;1.11;;
61675;SDS011;47574;52.090;5.244;2022-07-11T02:00:22;2.6;;;1.2;;
61675;SDS011;47574;52.090;5.244;2022-07-11T02:02:08;4.91;;;1.3;;
61675;SDS011;47574;52.090;5.244;2022-07-11T02:03:56;6.2;;;1.2;;
61675;SDS011;47574;52.090;5.244;2022-07-11T02:05:43;7.1;;;1.5;;
61675;SDS011;47574;52.090;5.244;2022-07-11T02:08:33;3.5;;;1.11;;
61675;SDS011;47574;52.090;5.244;2022-07-11T02:10:21;6.0;;;1.4;;
61675;SDS011;47574;52.090;5.244;2022-07-11T02:12:08;3.0;;;1.2;;
61675;SDS011;47574;52.090;5.244;2022-07-11T02:13:54;3.5;;;1.2;;
61675;SDS011;47574;52.090;5.244;2022-07-11T02:15:41;3.7;;;1.3;;
61675;SDS011;47574;52.090;5.244;2022-07-11T02:19:16;5.3;;;1.4;;
61675;SDS011;47574;52.090;5.244;2022-07-11T02:21:02;7.4;;;1.9;;
61675;SDS011;47574;52.090;5.244;2022-07-11T02:22:49;4.41;;;1.5;;
61675;SDS011;47574;52.090;5.244;2022-07-11T02:24:36;6.3;;;1.6;;
61675;SDS011;47574;52.090;5.244;2022-07-11T02:26:22;6.3;;;1.6;;
61675;SDS011;47574;52.090;5.244;2022-07-11T02:28:09;4.1;;;1.3;;
61675;SDS011;47574;52.090;5.244;2022-07-11T02:33:28;3.3;;;1.3;;
61675;SDS011;47574;52.090;5.244;2022-07-11T02:35:14;2.6;;;1.0;;
61675;SDS011;47574;52.090;5.244;2022-07-11T02:37:01;4.0;;;1.11;;
61675;SDS011;47574;52.090;5.244;2022-07-11T02:38:48;5.9;;;1.4;;
61675;SDS011;47574;52.090;5.244;2022-07-11T02:42:21;4.8;;;1.2;;
61675;SDS011;47574;52.090;5.244;2022-07-11T02:44:09;4.7;;;1.2;;
61675;SDS011;47574;52.090;5.244;2022-07-11T02:45:55;4.5;;;1.2;;
61675;SDS011;47574;52.090;5.244;2022-07-11T02:47:42;3.6;;;1.4;;
61675;SDS011;47574;52.090;5.244;2022-07-11T02:49:30;5.0;;;1.2;;
61675;SDS011;47574;52.090;5.244;2022-07-11T02:51:16;3.0;;;1.0;;
61675;SDS011;47574;52.090;5.244;2022-07-11T02:54:49;5.7;;;1.3;;
61675;SDS011;47574;52.090;5.244;2022-07-11T02:56:35;3.6;;;1.3;;
61675;SDS011;47574;52.090;5.244;2022-07-11T02:58:21;4.7;;;1.3;;
61675;SDS011;47574;52.090;5.244;2022-07-11T03:00:08;3.9;;;1.3;;
61675;SDS011;47574;52.090;5.244;2022-07-11T03:01:58;3.3;;;1.11;;
61675;SDS011;47574;52.090;5.244;2022-07-11T03:03:45;3.2;;;1.3;;
61675;SDS011;47574;52.090;5.244;2022-07-11T03:07:19;4.5;;;1.3;;
61675;SDS011;47574;52.090;5.244;2022-07-11T03:09:05;5.6;;;1.5;;
61675;SDS011;47574;52.090;5.244;2022-07-11T03:10:52;4.0;;;1.4;;
61675;SDS011;47574;52.090;5.244;2022-07-11T03:12:38;4.3;;;1.5;;
61675;SDS011;47574;52.090;5.244;2022-07-11T03:14:25;3.6;;;1.4;;
61675;SDS011;47574;52.090;5.244;2022-07-11T03:17:57;2.8;;;1.5;;
61675;SDS011;47574;52.090;5.244;2022-07-11T03:19:44;4.2;;;1.2;;
61675;SDS011;47574;52.090;5.244;2022-07-11T03:21:31;3.7;;;1.4;;
61675;SDS011;47574;52.090;5.244;2022-07-11T03:23:17;3.8;;;1.3;;
61675;SDS011;47574;52.090;5.244;2022-07-11T03:25:06;3.1;;;1.4;;
61675;SDS011;47574;52.090;5.244;2022-07-11T03:26:53;3.4;;;1.3;;
61675;SDS011;47574;52.090;5.244;2022-07-11T03:30:26;5.2;;;1.7;;
61675;SDS011;47574;52.090;5.244;2022-07-11T03:32:12;4.2;;;1.4;;
61675;SDS011;47574;52.090;5.244;2022-07-11T03:33:59;3.3;;;1.4;;
61675;SDS011;47574;52.090;5.244;2022-07-11T03:35:46;3.0;;;1.2;;
61675;SDS011;47574;52.090;5.244;2022-07-11T03:37:32;2.9;;;1.4;;
61675;SDS011;47574;52.090;5.244;2022-07-11T03:39:21;3.8;;;1.6;;
61675;SDS011;47574;52.090;5.244;2022-07-11T03:42:54;5.5;;;1.6;;
61675;SDS011;47574;52.090;5.244;2022-07-11T03:44:40;3.9;;;1.8;;
61675;SDS011;47574;52.090;5.244;2022-07-11T03:46:26;4.61;;;1.9;;
61675;SDS011;47574;52.090;5.244;2022-07-11T03:48:12;2.7;;;1.6;;
61675;SDS011;47574;52.090;5.244;2022-07-11T03:49:58;4.2;;;1.7;;
61675;SDS011;47574;52.090;5.244;2022-07-11T03:53:31;3.7;;;1.8;;
61675;SDS011;47574;52.090;5.244;2022-07-11T03:55:18;3.0;;;1.5;;
61675;SDS011;47574;52.090;5.244;2022-07-11T03:57:05;3.8;;;1.6;;
61675;SDS011;47574;52.090;5.244;2022-07-11T03:58:52;4.91;;;1.9;;
61675;SDS011;47574;52.090;5.244;2022-07-11T04:00:38;4.0;;;1.7;;
61675;SDS011;47574;52.090;5.244;2022-07-11T04:02:24;2.31;;;1.7;;
61675;SDS011;47574;52.090;5.244;2022-07-11T04:05:57;3.3;;;1.9;;
61675;SDS011;47574;52.090;5.244;2022-07-11T04:07:44;5.2;;;2.0;;
61675;SDS011;47574;52.090;5.244;2022-07-11T04:09:31;3.6;;;1.6;;
61675;SDS011;47574;52.090;5.244;2022-07-11T04:11:17;3.2;;;1.9;;
61675;SDS011;47574;52.090;5.244;2022-07-11T04:13:03;3.0;;;1.7;;
61675;SDS011;47574;52.090;5.244;2022-07-11T04:14:49;3.4;;;1.9;;
61675;SDS011;47574;52.090;5.244;2022-07-11T04:18:22;4.2;;;2.1;;
61675;SDS011;47574;52.090;5.244;2022-07-11T04:20:10;4.3;;;1.9;;
61675;SDS011;47574;52.090;5.244;2022-07-11T04:21:58;3.0;;;2.1;;
61675;SDS011;47574;52.090;5.244;2022-07-11T04:23:45;4.61;;;2.6;;
61675;SDS011;47574;52.090;5.244;2022-07-11T04:25:32;4.3;;;2.6;;
61675;SDS011;47574;52.090;5.244;2022-07-11T04:29:05;3.7;;;2.8;;
61675;SDS011;47574;52.090;5.244;2022-07-11T04:30:51;4.3;;;2.7;;
61675;SDS011;47574;52.090;5.244;2022-07-11T04:32:38;3.9;;;2.6;;
61675;SDS011;47574;52.090;5.244;2022-07-11T04:34:25;4.3;;;2.8;;
61675;SDS011;47574;52.090;5.244;2022-07-11T04:36:11;4.8;;;2.5;;
61675;SDS011;47574;52.090;5.244;2022-07-11T04:37:57;4.1;;;2.5;;
61675;SDS011;47574;52.090;5.244;2022-07-11T04:41:33;2.21;;;2.0;;
61675;SDS011;47574;52.090;5.244;2022-07-11T04:43:19;5.4;;;2.5;;
61675;SDS011;47574;52.090;5.244;2022-07-11T04:45:06;4.0;;;2.4;;
61675;SDS011;47574;52.090;5.244;2022-07-11T04:46:53;3.7;;;2.7;;
61675;SDS011;47574;52.090;5.244;2022-07-11T04:48:39;4.5;;;2.0;;
61675;SDS011;47574;52.090;5.244;2022-07-11T04:50:25;3.6;;;2.7;;
61675;SDS011;47574;52.090;5.244;2022-07-11T04:53:58;3.8;;;2.4;;
61675;SDS011;47574;52.090;5.244;2022-07-11T04:55:45;4.3;;;2.4;;
61675;SDS011;47574;52.090;5.244;2022-07-11T04:57:31;5.6;;;2.9;;
61675;SDS011;47574;52.090;5.244;2022-07-11T04:59:17;5.7;;;2.6;;
61675;SDS011;47574;52.090;5.244;2022-07-11T05:01:05;4.3;;;2.6;;
61675;SDS011;47574;52.090;5.244;2022-07-11T05:04:38;5.3;;;2.7;;
61675;SDS011;47574;52.090;5.244;2022-07-11T05:06:25;3.0;;;2.5;;
61675;SDS011;47574;52.090;5.244;2022-07-11T05:08:12;4.7;;;2.8;;
61675;SDS011;47574;52.090;5.244;2022-07-11T05:09:58;5.6;;;3.1;;
61675;SDS011;47574;52.090;5.244;2022-07-11T05:11:44;7.4;;;3.0;;
61675;SDS011;47574;52.090;5.244;2022-07-11T05:13:31;4.3;;;2.8;;
61675;SDS011;47574;52.090;5.244;2022-07-11T05:17:05;5.11;;;2.9;;
61675;SDS011;47574;52.090;5.244;2022-07-11T05:18:51;8.5;;;3.1;;
61675;SDS011;47574;52.090;5.244;2022-07-11T05:20:39;4.41;;;2.8;;
61675;SDS011;47574;52.090;5.244;2022-07-11T05:22:25;3.6;;;2.8;;
61675;SDS011;47574;52.090;5.244;2022-07-11T05:24:11;5.5;;;2.8;;
61675;SDS011;47574;52.090;5.244;2022-07-11T05:25:57;5.5;;;3.1;;
61675;SDS011;47574;52.090;5.244;2022-07-11T05:29:29;3.4;;;2.9;;
61675;SDS011;47574;52.090;5.244;2022-07-11T05:31:16;5.3;;;2.9;;
61675;SDS011;47574;52.090;5.244;2022-07-11T05:33:02;8.1;;;3.1;;
61675;SDS011;47574;52.090;5.244;2022-07-11T05:34:49;4.2;;;2.8;;
61675;SDS011;47574;52.090;5.244;2022-07-11T05:36:35;4.1;;;2.6;;
61675;SDS011;47574;52.090;5.244;2022-07-11T05:40:08;4.41;;;2.21;;
61675;SDS011;47574;52.090;5.244;2022-07-11T05:41:55;3.9;;;2.4;;
61675;SDS011;47574;52.090;5.244;2022-07-11T05:43:42;2.5;;;2.21;;
61675;SDS011;47574;52.090;5.244;2022-07-11T05:45:28;5.7;;;2.21;;
61675;SDS011;47574;52.090;5.244;2022-07-11T05:47:14;3.3;;;1.8;;
61675;SDS011;47574;52.090;5.244;2022-07-11T05:49:01;2.31;;;1.7;;
61675;SDS011;47574;52.090;5.244;2022-07-11T05:52:33;2.6;;;1.6;;
61675;SDS011;47574;52.090;5.244;2022-07-11T05:54:19;2.4;;;1.4;;
61675;SDS011;47574;52.090;5.244;2022-07-11T05:56:07;2.7;;;1.6;;
61675;SDS011;47574;52.090;5.244;2022-07-11T05:57:54;1.4;;;1.3;;
61675;SDS011;47574;52.090;5.244;2022-07-11T05:59:41;1.7;;;1.4;;
61675;SDS011;47574;52.090;5.244;2022-07-11T06:03:13;2.7;;;1.11;;
61675;SDS011;47574;52.090;5.244;2022-07-11T06:05:00;2.7;;;1.3;;
61675;SDS011;47574;52.090;5.244;2022-07-11T06:06:46;3.8;;;2.0;;
61675;SDS011;47574;52.090;5.244;2022-07-11T06:08:41;3.4;;;1.3;;
61675;SDS011;47574;52.090;5.244;2022-07-11T06:10:28;1.3;;;1.2;;
61675;SDS011;47574;52.090;5.244;2022-07-11T06:12:15;1.7;;;1.2;;
61675;SDS011;47574;52.090;5.244;2022-07-11T06:15:48;1.5;;;0.9;;
61675;SDS011;47574;52.090;5.244;2022-07-11T06:17:34;1.7;;;1.0;;
61675;SDS011;47574;52.090;5.244;2022-07-11T06:19:21;1.0;;;0.9;;
61675;SDS011;47574;52.090;5.244;2022-07-11T06:21:07;1.3;;;1.11;;
61675;SDS011;47574;52.090;5.244;2022-07-11T06:22:54;2.5;;;1.0;;
61675;SDS011;47574;52.090;5.244;2022-07-11T06:24:41;2.6;;;1.0;;
61675;SDS011;47574;52.090;5.244;2022-07-11T06:28:14;2.6;;;1.0;;
61675;SDS011;47574;52.090;5.244;2022-07-11T06:30:00;1.11;;;1.0;;
61675;SDS011;47574;52.090;5.244;2022-07-11T06:31:47;2.31;;;0.9;;
61675;SDS011;47574;52.090;5.244;2022-07-11T06:33:34;2.5;;;1.0;;
61675;SDS011;47574;52.090;5.244;2022-07-11T06:35:22;1.2;;;0.7;;
61675;SDS011;47574;52.090;5.244;2022-07-11T06:37:09;2.4;;;1.0;;
61675;SDS011;47574;52.090;5.244;2022-07-11T06:40:42;0.9;;;0.7;;
61675;SDS011;47574;52.090;5.244;2022-07-11T06:42:28;1.11;;;0.7;;
61675;SDS011;47574;52.090;5.244;2022-07-11T06:44:14;2.0;;;0.7;;
61675;SDS011;47574;52.090;5.244;2022-07-11T06:46:01;1.4;;;1.0;;
61675;SDS011;47574;52.090;5.244;2022-07-11T06:47:48;1.11;;;0.7;;
61675;SDS011;47574;52.090;5.244;2022-07-11T06:51:22;2.4;;;0.5;;
61675;SDS011;47574;52.090;5.244;2022-07-11T06:53:08;1.0;;;0.4;;
61675;SDS011;47574;52.090;5.244;2022-07-11T06:54:55;0.4;;;0.3;;
61675;SDS011;47574;52.090;5.244;2022-07-11T06:56:41;2.0;;;0.7;;
61675;SDS011;47574;52.090;5.244;2022-07-11T06:58:35;1.2;;;0.5;;
61675;SDS011;47574;52.090;5.244;2022-07-11T07:03:55;0.7;;;0.5;;
61675;SDS011;47574;52.090;5.244;2022-07-11T07:05:41;0.7;;;0.5;;
61675;SDS011;47574;52.090;5.244;2022-07-11T07:07:28;0.6;;;0.4;;
61675;SDS011;47574;52.090;5.244;2022-07-11T07:09:15;0.6;;;0.5;;
61675;SDS011;47574;52.090;5.244;2022-07-11T07:11:01;0.7;;;0.6;;
61675;SDS011;47574;52.090;5.244;2022-07-11T07:12:48;0.7;;;0.4;;
61675;SDS011;47574;52.090;5.244;2022-07-11T07:16:21;0.4;;;0.4;;
61675;SDS011;47574;52.090;5.244;2022-07-11T07:18:07;1.0;;;0.5;;
61675;SDS011;47574;52.090;5.244;2022-07-11T07:19:53;0.5;;;0.4;;
61675;SDS011;47574;52.090;5.244;2022-07-11T07:21:41;1.0;;;0.3;;
61675;SDS011;47574;52.090;5.244;2022-07-11T07:23:27;0.7;;;0.3;;
61675;SDS011;47574;52.090;5.244;2022-07-11T07:25:13;0.9;;;0.4;;
61675;SDS011;47574;52.090;5.244;2022-07-11T07:28:46;0.5;;;0.3;;
61675;SDS011;47574;52.090;5.244;2022-07-11T07:30:33;1.0;;;0.3;;
61675;SDS011;47574;52.090;5.244;2022-07-11T07:32:19;0.4;;;0.4;;
61675;SDS011;47574;52.090;5.244;2022-07-11T07:34:08;0.3;;;0.3;;
61675;SDS011;47574;52.090;5.244;2022-07-11T07:35:55;1.3;;;0.4;;
61675;SDS011;47574;52.090;5.244;2022-07-11T07:39:28;0.4;;;0.4;;
61675;SDS011;47574;52.090;5.244;2022-07-11T07:41:15;1.3;;;0.5;;
61675;SDS011;47574;52.090;5.244;2022-07-11T07:43:03;0.4;;;0.4;;
61675;SDS011;47574;52.090;5.244;2022-07-11T07:44:50;1.11;;;0.5;;
61675;SDS011;47574;52.090;5.244;2022-07-11T07:46:37;1.11;;;0.7;;
61675;SDS011;47574;52.090;5.244;2022-07-11T07:48:23;1.11;;;0.6;;
61675;SDS011;47574;52.090;5.244;2022-07-11T07:51:56;0.7;;;0.4;;
61675;SDS011;47574;52.090;5.244;2022-07-11T07:53:42;0.9;;;0.4;;
61675;SDS011;47574;52.090;5.244;2022-07-11T07:55:28;0.6;;;0.4;;
61675;SDS011;47574;52.090;5.244;2022-07-11T07:57:16;0.9;;;0.3;;
61675;SDS011;47574;52.090;5.244;2022-07-11T07:59:02;0.8;;;0.4;;
61675;SDS011;47574;52.090;5.244;2022-07-11T08:01:52;0.3;;;0.3;;
61675;SDS011;47574;52.090;5.244;2022-07-11T08:03:38;1.0;;;0.4;;
61675;SDS011;47574;52.090;5.244;2022-07-11T08:05:25;0.5;;;0.3;;
61675;SDS011;47574;52.090;5.244;2022-07-11T08:07:11;0.7;;;0.4;;
61675;SDS011;47574;52.090;5.244;2022-07-11T08:10:45;0.9;;;0.5;;
61675;SDS011;47574;52.090;5.244;2022-07-11T08:12:31;1.4;;;0.4;;
61675;SDS011;47574;52.090;5.244;2022-07-11T08:14:17;0.5;;;0.4;;
61675;SDS011;47574;52.090;5.244;2022-07-11T08:16:04;0.8;;;0.3;;
61675;SDS011;47574;52.090;5.244;2022-07-11T08:17:52;1.6;;;0.5;;
61675;SDS011;47574;52.090;5.244;2022-07-11T08:19:38;1.11;;;0.4;;
61675;SDS011;47574;52.090;5.244;2022-07-11T08:23:12;0.6;;;0.4;;
61675;SDS011;47574;52.090;5.244;2022-07-11T08:24:59;0.3;;;0.3;;
61675;SDS011;47574;52.090;5.244;2022-07-11T08:26:46;0.4;;;0.4;;
61675;SDS011;47574;52.090;5.244;2022-07-11T08:28:32;0.3;;;0.3;;
61675;SDS011;47574;52.090;5.244;2022-07-11T08:30:18;1.11;;;0.5;;
61675;SDS011;47574;52.090;5.244;2022-07-11T08:33:52;0.3;;;0.3;;
61675;SDS011;47574;52.090;5.244;2022-07-11T08:35:39;0.7;;;0.5;;
61675;SDS011;47574;52.090;5.244;2022-07-11T08:37:26;0.3;;;0.3;;
61675;SDS011;47574;52.090;5.244;2022-07-11T08:39:12;0.5;;;0.3;;
61675;SDS011;47574;52.090;5.244;2022-07-11T08:40:58;0.6;;;0.5;;
61675;SDS011;47574;52.090;5.244;2022-07-11T08:42:44;1.0;;;0.4;;
61675;SDS011;47574;52.090;5.244;2022-07-11T08:46:19;0.6;;;0.3;;
61675;SDS011;47574;52.090;5.244;2022-07-11T08:48:07;0.7;;;0.3;;
61675;SDS011;47574;52.090;5.244;2022-07-11T08:49:54;1.5;;;0.5;;
61675;SDS011;47574;52.090;5.244;2022-07-11T08:51:44;0.6;;;0.5;;
61675;SDS011;47574;52.090;5.244;2022-07-11T08:53:35;2.7;;;0.6;;
61675;SDS011;47574;52.090;5.244;2022-07-11T08:55:25;1.0;;;1.0;;
61675;SDS011;47574;52.090;5.244;2022-07-11T08:58:59;0.4;;;0.4;;
61675;SDS011;47574;52.090;5.244;2022-07-11T09:00:46;0.3;;;0.3;;
61675;SDS011;47574;52.090;5.244;2022-07-11T09:02:33;0.6;;;0.5;;
61675;SDS011;47574;52.090;5.244;2022-07-11T09:04:21;0.6;;;0.5;;
61675;SDS011;47574;52.090;5.244;2022-07-11T09:06:11;0.5;;;0.5;;
61675;SDS011;47574;52.090;5.244;2022-07-11T09:07:58;0.4;;;0.3;;
61675;SDS011;47574;52.090;5.244;2022-07-11T09:11:47;0.8;;;0.5;;
61675;SDS011;47574;52.090;5.244;2022-07-11T09:13:36;0.6;;;0.3;;
61675;SDS011;47574;52.090;5.244;2022-07-11T09:15:30;1.3;;;0.4;;
61675;SDS011;47574;52.090;5.244;2022-07-11T09:17:23;0.9;;;0.5;;
61675;SDS011;47574;52.090;5.244;2022-07-11T09:19:19;5.2;;;1.11;;
61675;SDS011;47574;52.090;5.244;2022-07-11T09:27:13;4.2;;;0.7;;
61675;SDS011;47574;52.090;5.244;2022-07-11T09:29:00;39.0;;;3.8;;
61675;SDS011;47574;52.090;5.244;2022-07-11T09:30:49;4.61;;;0.9;;
61675;SDS011;47574;52.090;5.244;2022-07-11T09:34:36;6.6;;;1.9;;
61675;SDS011;47574;52.090;5.244;2022-07-11T09:36:32;8.31;;;1.2;;
61675;SDS011;47574;52.090;5.244;2022-07-11T09:38:21;1.0;;;0.6;;
61675;SDS011;47574;52.090;5.244;2022-07-11T09:40:10;1.9;;;1.7;;
61675;SDS011;47574;52.090;5.244;2022-07-11T09:41:57;1.9;;;0.8;;
61675;SDS011;47574;52.090;5.244;2022-07-11T09:43:43;1.2;;;1.11;;
61675;SDS011;47574;52.090;5.244;2022-07-11T09:45:30;1.11;;;0.6;;
61675;SDS011;47574;52.090;5.244;2022-07-11T09:49:05;2.1;;;0.5;;
61675;SDS011;47574;52.090;5.244;2022-07-11T09:50:55;2.4;;;0.8;;
61675;SDS011;47574;52.090;5.244;2022-07-11T09:52:57;0.8;;;0.8;;
61675;SDS011;47574;52.090;5.244;2022-07-11T09:54:51;0.8;;;0.6;;
61675;SDS011;47574;52.090;5.244;2022-07-11T09:56:41;0.6;;;0.5;;
61675;SDS011;47574;52.090;5.244;2022-07-11T09:58:29;0.8;;;0.4;;
61675;SDS011;47574;52.090;5.244;2022-07-11T10:00:15;0.8;;;0.4;;
61675;SDS011;47574;52.090;5.244;2022-07-11T10:03:49;0.9;;;0.4;;
61675;SDS011;47574;52.090;5.244;2022-07-11T10:05:36;2.0;;;0.6;;
61675;SDS011;47574;52.090;5.244;2022-07-11T10:07:23;1.8;;;0.4;;
61675;SDS011;47574;52.090;5.244;2022-07-11T10:09:10;1.6;;;0.5;;
61675;SDS011;47574;52.090;5.244;2022-07-11T10:10:57;1.7;;;0.3;;
61675;SDS011;47574;52.090;5.244;2022-07-11T10:12:45;0.6;;;0.6;;
61675;SDS011;47574;52.090;5.244;2022-07-11T10:16:25;0.4;;;0.4;;
61675;SDS011;47574;52.090;5.244;2022-07-11T10:18:28;1.0;;;0.4;;
61675;SDS011;47574;52.090;5.244;2022-07-11T10:20:23;1.2;;;0.4;;
61675;SDS011;47574;52.090;5.244;2022-07-11T10:22:26;1.8;;;0.4;;
61675;SDS011;47574;52.090;5.244;2022-07-11T10:24:23;0.7;;;0.4;;
61675;SDS011;47574;52.090;5.244;2022-07-11T10:26:20;2.8;;;0.6;;
61675;SDS011;47574;52.090;5.244;2022-07-11T10:28:18;1.4;;;0.4;;
61675;SDS011;47574;52.090;5.244;2022-07-11T10:30:39;0.4;;;0.4;;
61675;SDS011;47574;52.090;5.244;2022-07-11T10:32:27;1.11;;;0.5;;
61675;SDS011;47574;52.090;5.244;2022-07-11T10:34:26;0.3;;;0.3;;
61675;SDS011;47574;52.090;5.244;2022-07-11T10:36:25;1.11;;;0.5;;
61675;SDS011;47574;52.090;5.244;2022-07-11T10:38:12;1.4;;;0.5;;
61675;SDS011;47574;52.090;5.244;2022-07-11T10:39:59;0.4;;;0.4;;
61675;SDS011;47574;52.090;5.244;2022-07-11T10:43:37;0.5;;;0.5;;
61675;SDS011;47574;52.090;5.244;2022-07-11T10:45:24;0.4;;;0.3;;
61675;SDS011;47574;52.090;5.244;2022-07-11T10:47:30;0.4;;;0.4;;
61675;SDS011;47574;52.090;5.244;2022-07-11T10:49:21;0.7;;;0.6;;
61675;SDS011;47574;52.090;5.244;2022-07-11T10:51:24;1.0;;;0.7;;
61675;SDS011;47574;52.090;5.244;2022-07-11T10:53:20;0.7;;;0.5;;
61675;SDS011;47574;52.090;5.244;2022-07-11T10:55:18;0.5;;;0.4;;
61675;SDS011;47574;52.090;5.244;2022-07-11T10:57:19;0.8;;;0.6;;
61675;SDS011;47574;52.090;5.244;2022-07-11T10:59:11;1.0;;;0.8;;
61675;SDS011;47574;52.090;5.244;2022-07-11T11:01:07;0.8;;;0.7;;
61675;SDS011;47574;52.090;5.244;2022-07-11T11:03:00;1.8;;;0.9;;
61675;SDS011;47574;52.090;5.244;2022-07-11T11:06:55;0.6;;;0.4;;
61675;SDS011;47574;52.090;5.244;2022-07-11T11:08:43;0.8;;;0.5;;
61675;SDS011;47574;52.090;5.244;2022-07-11T11:13:38;0.5;;;0.5;;
61675;SDS011;47574;52.090;5.244;2022-07-11T11:15:31;0.9;;;0.4;;
61675;SDS011;47574;52.090;5.244;2022-07-11T11:19:54;0.7;;;0.5;;
61675;SDS011;47574;52.090;5.244;2022-07-11T11:21:42;0.5;;;0.5;;
61675;SDS011;47574;52.090;5.244;2022-07-11T11:23:46;0.7;;;0.3;;
61675;SDS011;47574;52.090;5.244;2022-07-11T11:29:49;0.6;;;0.6;;
61675;SDS011;47574;52.090;5.244;2022-07-11T11:31:37;0.7;;;0.6;;
61675;SDS011;47574;52.090;5.244;2022-07-11T11:33:24;1.0;;;0.5;;
61675;SDS011;47574;52.090;5.244;2022-07-11T11:35:12;0.5;;;0.5;;
61675;SDS011;47574;52.090;5.244;2022-07-11T11:37:03;1.0;;;0.8;;
61675;SDS011;47574;52.090;5.244;2022-07-11T11:38:50;0.5;;;0.5;;
61675;SDS011;47574;52.090;5.244;2022-07-11T11:40:45;1.3;;;0.5;;
61675;SDS011;47574;52.090;5.244;2022-07-11T11:42:33;0.5;;;0.4;;
61675;SDS011;47574;52.090;5.244;2022-07-11T11:46:07;2.1;;;0.7;;
61675;SDS011;47574;52.090;5.244;2022-07-11T11:47:53;0.9;;;0.3;;
61675;SDS011;47574;52.090;5.244;2022-07-11T11:49:40;1.0;;;0.3;;
61675;SDS011;47574;52.090;5.244;2022-07-11T11:51:28;0.8;;;0.4;;
61675;SDS011;47574;52.090;5.244;2022-07-11T11:53:16;0.6;;;0.5;;
61675;SDS011;47574;52.090;5.244;2022-07-11T11:56:53;0.9;;;0.5;;
61675;SDS011;47574;52.090;5.244;2022-07-11T11:58:40;0.3;;;0.3;;
61675;SDS011;47574;52.090;5.244;2022-07-11T12:00:29;1.5;;;0.3;;
61675;SDS011;47574;52.090;5.244;2022-07-11T12:02:21;0.7;;;0.6;;
61675;SDS011;47574;52.090;5.244;2022-07-11T12:04:13;1.11;;;0.6;;
61675;SDS011;47574;52.090;5.244;2022-07-11T12:06:00;0.9;;;0.9;;
61675;SDS011;47574;52.090;5.244;2022-07-11T12:07:48;0.5;;;0.5;;
61675;SDS011;47574;52.090;5.244;2022-07-11T12:11:41;0.6;;;0.4;;
61675;SDS011;47574;52.090;5.244;2022-07-11T12:13:29;2.21;;;0.9;;
61675;SDS011;47574;52.090;5.244;2022-07-11T12:15:24;0.7;;;0.5;;
61675;SDS011;47574;52.090;5.244;2022-07-11T12:19:10;0.5;;;0.3;;
61675;SDS011;47574;52.090;5.244;2022-07-11T12:21:08;0.6;;;0.4;;
61675;SDS011;47574;52.090;5.244;2022-07-11T12:22:55;0.5;;;0.5;;
61675;SDS011;47574;52.090;5.244;2022-07-11T12:24:46;0.5;;;0.5;;
61675;SDS011;47574;52.090;5.244;2022-07-11T12:26:35;0.4;;;0.3;;
61675;SDS011;47574;52.090;5.244;2022-07-11T12:30:21;1.9;;;0.6;;
61675;SDS011;47574;52.090;5.244;2022-07-11T12:32:10;1.2;;;0.4;;
61675;SDS011;47574;52.090;5.244;2022-07-11T12:33:58;0.3;;;0.3;;
61675;SDS011;47574;52.090;5.244;2022-07-11T12:35:53;0.8;;;0.3;;
61675;SDS011;47574;52.090;5.244;2022-07-11T12:37:44;1.11;;;0.4;;
61675;SDS011;47574;52.090;5.244;2022-07-11T12:39:31;0.3;;;0.3;;
61675;SDS011;47574;52.090;5.244;2022-07-11T12:41:19;2.21;;;0.5;;
61675;SDS011;47574;52.090;5.244;2022-07-11T12:46:47;0.3;;;0.3;;
61675;SDS011;47574;52.090;5.244;2022-07-11T12:48:40;6.3;;;0.8;;
61675;SDS011;47574;52.090;5.244;2022-07-11T12:50:27;4.1;;;0.6;;
61675;SDS011;47574;52.090;5.244;2022-07-11T12:52:14;0.4;;;0.3;;
61675;SDS011;47574;52.090;5.244;2022-07-11T12:54:02;0.6;;;0.4;;
61675;SDS011;47574;52.090;5.244;2022-07-11T12:55:53;1.0;;;0.3;;
61675;SDS011;47574;52.090;5.244;2022-07-11T12:59:26;0.4;;;0.3;;
61675;SDS011;47574;52.090;5.244;2022-07-11T13:01:12;0.3;;;0.3;;
61675;SDS011;47574;52.090;5.244;2022-07-11T13:02:59;0.4;;;0.4;;
61675;SDS011;47574;52.090;5.244;2022-07-11T13:04:46;0.5;;;0.4;;
61675;SDS011;47574;52.090;5.244;2022-07-11T13:09:36;0.4;;;0.3;;
61675;SDS011;47574;52.090;5.244;2022-07-11T13:11:24;0.4;;;0.3;;
61675;SDS011;47574;52.090;5.244;2022-07-11T13:13:10;0.4;;;0.3;;
61675;SDS011;47574;52.090;5.244;2022-07-11T13:15:12;0.3;;;0.3;;
61675;SDS011;47574;52.090;5.244;2022-07-11T13:17:01;0.5;;;0.4;;
61675;SDS011;47574;52.090;5.244;2022-07-11T13:18:48;1.3;;;0.4;;
61675;SDS011;47574;52.090;5.244;2022-07-11T13:22:21;0.3;;;0.3;;